Time;durP1;ratioP1;P1;durP2;ratioP2;P2;SDS_P1;SDS_P2;PMS_P1;PMS_P2;Temp;Humidity;BMP_temperature;BMP_pressure;BME280_temperature;BME280_humidity;BME280_pressure;Samples;Min_cycle;Max_cycle;Signal;HPM_P1;HPM_P2
2024/04/07 00:01:04;;;;;;;;;;;;;13.20;97174.00;;;;4994576;28;20375;-70
2024/04/07 00:03:52;;;;;;;;;;;;;13.10;97172.00;;;;4995140;28;20032;-73
2024/04/07 00:06:39;;;;;;;;;;;;;13.40;97172.00;;;;4993685;28;19926;-71
2024/04/07 00:09:28;;;;;;;;;;;;;13.50;97170.00;;;;4996938;28;20375;-70
2024/04/07 00:12:15;;;;;;;;;;;;;13.60;97169.00;;;;4992494;28;19926;-72
2024/04/07 00:15:04;;;;;;;;;;;;;13.50;97168.00;;;;4999503;28;19943;-71
2024/04/07 00:17:52;;;;;;;;;;;;;13.90;97174.00;;;;4999316;28;19935;-70
2024/04/07 00:20:40;;;;;;;;;;;;;13.70;97183.00;;;;4989970;28;19936;-70
2024/04/07 00:23:27;;;;;;;;;;;;;14.00;97173.00;;;;4997190;28;19933;-70
2024/04/07 00:26:16;;;;;;;;;;;;;14.10;97180.00;;;;5004302;28;20640;-70
2024/04/07 00:29:03;;;;;;;;;;;;;13.50;97174.00;;;;4996634;28;19926;-70
2024/04/07 00:31:51;;;;;;;;;;;;;13.60;97176.00;;;;4990639;28;19929;-70
2024/04/07 00:34:39;;;;;;;;;;;;;13.20;97164.00;;;;4997396;28;19979;-71
2024/04/07 00:37:28;;;;;;;;;;;;;13.60;97172.00;;;;4999652;28;19925;-70
2024/04/07 00:40:15;;;;;;;;;;;;;13.90;97172.00;;;;4999511;28;19925;-70
2024/04/07 00:43:06;;;;;;;;;;;;;13.70;97177.00;;;;4993622;28;20413;-70
2024/04/07 00:45:53;;;;;;;;;;;;;13.10;97177.00;;;;4992213;28;19929;-70
2024/04/07 00:48:41;;;;;;;;;;;;;13.00;97178.00;;;;5000818;28;19929;-70
2024/04/07 00:51:28;;;;;;;;;;;;;13.10;97168.00;;;;4997285;28;19988;-70
2024/04/07 00:54:16;;;;;;;;;;;;;12.60;97168.00;;;;5002352;28;19932;-70
2024/04/07 00:57:03;;;;;;;;;;;;;12.60;97167.00;;;;4997252;28;19929;-70
2024/04/07 00:59:53;;;;;;;;;;;;;12.70;97173.00;;;;4991613;28;19925;-70
2024/04/07 01:02:41;;;;;;;;;;;;;13.20;97175.00;;;;4988454;28;19929;-69
2024/04/07 01:05:37;;;;;;;;;;;;;13.70;97183.00;;;;5005980;28;19933;-69
2024/04/07 01:08:25;;;;;;;;;;;;;13.30;97179.00;;;;4999929;28;19926;-70
2024/04/07 01:11:13;;;;;;;;;;;;;12.70;97177.00;;;;4999309;28;19940;-69
2024/04/07 01:14:03;;;;;;;;;;;;;13.40;97175.00;;;;4995505;28;20349;-69
2024/04/07 01:16:52;;;;;;;;;;;;;13.00;97180.00;;;;4998986;28;19936;-69
2024/04/07 01:19:39;;;;;;;;;;;;;12.30;97187.00;;;;4998496;28;19971;-69
2024/04/07 01:22:27;;;;;;;;;;;;;12.30;97171.00;;;;4995636;28;20598;-69
2024/04/07 01:25:16;;;;;;;;;;;;;12.10;97173.00;;;;5000050;28;19929;-69
2024/04/07 01:28:05;;;;;;;;;;;;;11.50;97165.00;;;;4997270;28;20526;-69
2024/04/07 01:30:52;;;;;;;;;;;;;12.20;97170.00;;;;5004608;28;19929;-69
2024/04/07 01:33:39;;;;;;;;;;;;;12.30;97172.00;;;;5007784;28;19925;-69
2024/04/07 01:36:26;;;;;;;;;;;;;13.10;97174.00;;;;5004711;28;19929;-69
2024/04/07 01:39:14;;;;;;;;;;;;;12.10;97179.00;;;;4998688;28;20401;-69
2024/04/07 01:42:03;;;;;;;;;;;;;12.10;97181.00;;;;5001827;28;19925;-69
2024/04/07 01:44:51;;;;;;;;;;;;;11.70;97169.00;;;;4993744;28;19926;-68
2024/04/07 01:47:38;;;;;;;;;;;;;12.30;97175.00;;;;5000778;28;20390;-68
2024/04/07 01:50:26;;;;;;;;;;;;;12.80;97176.00;;;;4995374;28;20401;-69
2024/04/07 01:53:13;;;;;;;;;;;;;12.90;97173.00;;;;4991298;28;19933;-68
2024/04/07 01:56:01;;;;;;;;;;;;;13.10;97174.00;;;;4998222;28;19926;-69
2024/04/07 01:58:50;;;;;;;;;;;;;12.90;97172.00;;;;4998683;28;19930;-69
2024/04/07 02:01:37;;;;;;;;;;;;;13.10;97171.00;;;;4993562;28;20463;-69
2024/04/07 02:04:27;;;;;;;;;;;;;13.40;97162.00;;;;4998462;28;19975;-69
2024/04/07 02:07:15;;;;;;;;;;;;;13.00;97162.00;;;;5001036;28;19934;-70
2024/04/07 02:10:02;;;;;;;;;;;;;13.10;97171.00;;;;4995939;28;19929;-70
2024/04/07 02:12:50;;;;;;;;;;;;;12.30;97157.00;;;;5004630;28;20013;-70
2024/04/07 02:15:38;;;;;;;;;;;;;11.80;97152.00;;;;5006689;28;19972;-70
2024/04/07 02:18:27;;;;;;;;;;;;;11.90;97151.00;;;;4998095;28;19925;-69
2024/04/07 02:21:16;;;;;;;;;;;;;11.50;97145.00;;;;5003486;28;19933;-68
2024/04/07 02:24:05;;;;;;;;;;;;;11.20;97146.00;;;;4995967;28;19929;-70
2024/04/07 02:26:52;;;;;;;;;;;;;11.60;97159.00;;;;4996219;28;19932;-70
2024/04/07 02:29:40;;;;;;;;;;;;;11.40;97152.00;;;;5001028;28;19932;-70
2024/04/07 02:32:28;;;;;;;;;;;;;11.60;97145.00;;;;4997282;28;20458;-69
2024/04/07 02:35:17;;;;;;;;;;;;;12.10;97152.00;;;;5002699;28;19932;-69
2024/04/07 02:38:04;;;;;;;;;;;;;11.70;97148.00;;;;4996373;28;19929;-69
2024/04/07 02:40:51;;;;;;;;;;;;;11.00;97141.00;;;;4993578;28;19929;-70
2024/04/07 02:43:39;;;;;;;;;;;;;11.20;97147.00;;;;4994347;28;19930;-69
2024/04/07 02:49:33;;;;;;;;;;;;;11.40;97146.00;;;;4998206;28;19925;-69
2024/04/07 02:52:21;;;;;;;;;;;;;11.60;97149.00;;;;4996319;28;19925;-70
2024/04/07 02:55:09;;;;;;;;;;;;;11.60;97159.00;;;;5004445;28;20397;-69
2024/04/07 02:58:03;;;;;;;;;;;;;11.20;97143.00;;;;5001762;28;19929;-70
2024/04/07 03:00:51;;;;;;;;;;;;;11.90;97149.00;;;;4992476;28;19926;-70
2024/04/07 03:03:38;;;;;;;;;;;;;11.90;97152.00;;;;4990868;28;20035;-70
2024/04/07 03:06:27;;;;;;;;;;;;;11.00;97143.00;;;;4997156;28;19926;-70
2024/04/07 03:09:14;;;;;;;;;;;;;11.10;97140.00;;;;4999122;28;21986;-70
2024/04/07 03:12:02;;;;;;;;;;;;;11.10;97143.00;;;;4995818;28;19948;-70
2024/04/07 03:14:52;;;;;;;;;;;;;11.70;97146.00;;;;4999267;28;19933;-70
2024/04/07 03:17:40;;;;;;;;;;;;;11.60;97142.00;;;;4992878;28;19930;-69
2024/04/07 03:20:27;;;;;;;;;;;;;10.90;97139.00;;;;5002750;28;20350;-68
2024/04/07 03:23:16;;;;;;;;;;;;;11.50;97153.00;;;;5001353;28;19933;-70
2024/04/07 03:26:03;;;;;;;;;;;;;11.60;97150.00;;;;4997896;28;19930;-70
2024/04/07 03:28:51;;;;;;;;;;;;;11.20;97159.00;;;;5004425;28;20006;-70
2024/04/07 03:31:38;;;;;;;;;;;;;10.70;97149.00;;;;4994257;28;19932;-70
2024/04/07 03:34:26;;;;;;;;;;;;;10.40;97146.00;;;;4998929;28;19947;-70
2024/04/07 03:37:14;;;;;;;;;;;;;10.80;97138.00;;;;5006329;28;19929;-70
2024/04/07 03:40:04;;;;;;;;;;;;;10.90;97141.00;;;;4992975;28;19925;-68
2024/04/07 03:42:51;;;;;;;;;;;;;11.40;97142.00;;;;4997534;28;19930;-69
2024/04/07 03:45:39;;;;;;;;;;;;;11.20;97139.00;;;;4996919;28;20399;-69
2024/04/07 03:48:27;;;;;;;;;;;;;10.90;97146.00;;;;5012209;28;19929;-69
2024/04/07 03:51:15;;;;;;;;;;;;;10.40;97127.00;;;;4995004;28;19980;-69
2024/04/07 03:54:03;;;;;;;;;;;;;10.90;97134.00;;;;4996147;28;20379;-70
2024/04/07 03:56:51;;;;;;;;;;;;;11.30;97138.00;;;;5012417;28;19926;-70
2024/04/07 03:59:39;;;;;;;;;;;;;10.70;97132.00;;;;5000241;28;19939;-70
2024/04/07 04:02:27;;;;;;;;;;;;;10.90;97133.00;;;;4992796;28;20481;-70
2024/04/07 04:05:15;;;;;;;;;;;;;11.30;97140.00;;;;4996964;28;20452;-69
2024/04/07 04:08:03;;;;;;;;;;;;;10.70;97142.00;;;;4995174;28;19925;-70
2024/04/07 04:10:49;;;;;;;;;;;;;10.80;97135.00;;;;4992739;28;19936;-70
2024/04/07 04:13:39;;;;;;;;;;;;;11.30;97142.00;;;;5011739;28;19929;-70
2024/04/07 04:16:26;;;;;;;;;;;;;11.20;97141.00;;;;4991440;28;19926;-70
2024/04/07 04:19:14;;;;;;;;;;;;;10.30;97141.00;;;;4996175;28;19937;-69
2024/04/07 04:22:01;;;;;;;;;;;;;11.10;97151.00;;;;4993850;28;19951;-70
2024/04/07 04:24:49;;;;;;;;;;;;;11.10;97149.00;;;;4990338;28;19925;-70
2024/04/07 04:27:36;;;;;;;;;;;;;10.90;97143.00;;;;4998603;28;20440;-70
2024/04/07 04:30:26;;;;;;;;;;;;;11.50;97154.00;;;;5007702;28;19925;-69
2024/04/07 04:33:12;;;;;;;;;;;;;11.30;97152.00;;;;4996424;28;20390;-69
2024/04/07 04:36:00;;;;;;;;;;;;;10.80;97162.00;;;;4991147;28;19925;-70
2024/04/07 04:38:50;;;;;;;;;;;;;10.30;97160.00;;;;4994431;28;19925;-70
2024/04/07 04:41:37;;;;;;;;;;;;;10.80;97170.00;;;;4992388;28;19952;-69
2024/04/07 04:44:27;;;;;;;;;;;;;11.60;97181.00;;;;4992093;28;20306;-70
2024/04/07 04:47:15;;;;;;;;;;;;;11.60;97177.00;;;;4996889;28;19933;-70
2024/04/07 04:50:03;;;;;;;;;;;;;11.80;97176.00;;;;4994339;28;19925;-69
2024/04/07 04:52:50;;;;;;;;;;;;;11.10;97173.00;;;;4993541;28;19925;-69
2024/04/07 04:55:38;;;;;;;;;;;;;10.60;97171.00;;;;4995621;28;19925;-70
2024/04/07 04:58:25;;;;;;;;;;;;;10.90;97175.00;;;;5003289;28;20287;-69
2024/04/07 05:01:13;;;;;;;;;;;;;11.30;97177.00;;;;4996134;28;19932;-70
2024/04/07 05:04:01;;;;;;;;;;;;;11.70;97183.00;;;;4997341;28;19925;-69
2024/04/07 05:06:49;;;;;;;;;;;;;11.20;97171.00;;;;4990127;28;19925;-70
2024/04/07 05:09:36;;;;;;;;;;;;;11.20;97183.00;;;;4990691;28;19930;-71
2024/04/07 05:12:24;;;;;;;;;;;;;11.50;97182.00;;;;4993649;28;20004;-70
2024/04/07 05:15:10;;;;;;;;;;;;;11.40;97176.00;;;;4994790;28;20452;-70
2024/04/07 05:17:58;;;;;;;;;;;;;11.50;97179.00;;;;4990910;28;19930;-69
2024/04/07 05:20:47;;;;;;;;;;;;;11.90;97164.00;;;;4991346;28;20421;-69
2024/04/07 05:23:35;;;;;;;;;;;;;11.80;97164.00;;;;4996055;28;19926;-69
2024/04/07 05:26:22;;;;;;;;;;;;;12.20;97179.00;;;;4994797;28;20399;-70
2024/04/07 05:29:09;;;;;;;;;;;;;12.10;97170.00;;;;4987510;28;19934;-69
2024/04/07 05:31:56;;;;;;;;;;;;;12.60;97181.00;;;;4993490;28;19938;-69
2024/04/07 05:34:48;;;;;;;;;;;;;12.30;97181.00;;;;5003116;28;19933;-69
2024/04/07 05:37:36;;;;;;;;;;;;;11.80;97179.00;;;;4987893;28;20302;-70
2024/04/07 05:40:24;;;;;;;;;;;;;11.20;97175.00;;;;4996946;28;19926;-70
2024/04/07 05:43:11;;;;;;;;;;;;;11.60;97183.00;;;;4996998;28;19925;-69
2024/04/07 05:46:03;;;;;;;;;;;;;11.90;97180.00;;;;4994502;28;20285;-69
2024/04/07 05:48:49;;;;;;;;;;;;;12.20;97192.00;;;;4996307;28;19932;-69
2024/04/07 05:51:37;;;;;;;;;;;;;12.20;97191.00;;;;4993671;28;20334;-69
2024/04/07 05:54:28;;;;;;;;;;;;;12.90;97183.00;;;;4996425;28;19987;-69
2024/04/07 05:57:16;;;;;;;;;;;;;13.50;97186.00;;;;4998785;28;19940;-70
2024/04/07 06:00:10;;;;;;;;;;;;;12.90;97182.00;;;;5000055;28;19933;-70
2024/04/07 06:02:56;;;;;;;;;;;;;13.00;97183.00;;;;4996782;28;19925;-70
2024/04/07 06:05:44;;;;;;;;;;;;;13.70;97191.00;;;;4997059;28;19925;-69
2024/04/07 06:08:31;;;;;;;;;;;;;14.60;97196.00;;;;4999961;28;20381;-70
2024/04/07 06:11:20;;;;;;;;;;;;;14.90;97199.00;;;;5002628;28;19936;-70
2024/04/07 06:14:07;;;;;;;;;;;;;15.40;97206.00;;;;4997822;28;19971;-70
2024/04/07 06:16:55;;;;;;;;;;;;;15.40;97197.00;;;;4997930;28;19952;-71
2024/04/07 06:19:42;;;;;;;;;;;;;15.60;97201.00;;;;4997055;28;19925;-70
2024/04/07 06:22:30;;;;;;;;;;;;;15.60;97203.00;;;;5004153;28;19933;-70
2024/04/07 06:25:18;;;;;;;;;;;;;16.70;97207.00;;;;5004389;28;19937;-69
2024/04/07 06:28:06;;;;;;;;;;;;;17.30;97208.00;;;;4996180;28;19936;-69
2024/04/07 06:30:54;;;;;;;;;;;;;17.40;97205.00;;;;4995317;28;19933;-69
2024/04/07 06:33:42;;;;;;;;;;;;;17.50;97212.00;;;;5010035;28;19980;-70
2024/04/07 06:36:30;;;;;;;;;;;;;17.30;97211.00;;;;5000342;28;19933;-70
2024/04/07 06:39:17;;;;;;;;;;;;;17.50;97207.00;;;;4999965;28;19934;-70
2024/04/07 06:42:05;;;;;;;;;;;;;17.70;97211.00;;;;4996646;28;19936;-69
2024/04/07 06:44:54;;;;;;;;;;;;;17.90;97211.00;;;;4997279;28;20387;-70
2024/04/07 06:47:42;;;;;;;;;;;;;18.00;97208.00;;;;5004291;28;19925;-70
2024/04/07 06:50:29;;;;;;;;;;;;;18.10;97214.00;;;;4990233;28;19943;-70
2024/04/07 06:53:17;;;;;;;;;;;;;18.00;97203.00;;;;4999972;28;20302;-69
2024/04/07 06:56:05;;;;;;;;;;;;;18.50;97212.00;;;;4992645;28;19943;-69
2024/04/07 06:58:52;;;;;;;;;;;;;18.50;97199.00;;;;5007371;28;19932;-70
2024/04/07 07:01:41;;;;;;;;;;;;;18.70;97203.00;;;;4991975;28;19925;-72
2024/04/07 07:04:28;;;;;;;;;;;;;18.90;97206.00;;;;4995992;28;20397;-71
2024/04/07 07:07:16;;;;;;;;;;;;;19.20;97210.00;;;;4992656;28;20020;-70
2024/04/07 07:10:03;;;;;;;;;;;;;19.30;97209.00;;;;4992431;28;20460;-71
2024/04/07 07:12:51;;;;;;;;;;;;;19.30;97203.00;;;;4996000;28;19945;-71
2024/04/07 07:15:38;;;;;;;;;;;;;19.30;97206.00;;;;4995418;28;19926;-72
2024/04/07 07:18:27;;;;;;;;;;;;;19.70;97211.00;;;;4995171;28;19934;-72
2024/04/07 07:21:14;;;;;;;;;;;;;19.50;97208.00;;;;5007823;28;19929;-72
2024/04/07 07:24:02;;;;;;;;;;;;;19.60;97204.00;;;;4997308;28;19948;-71
2024/04/07 07:26:49;;;;;;;;;;;;;19.90;97217.00;;;;4995781;28;19995;-71
2024/04/07 07:29:37;;;;;;;;;;;;;19.80;97214.00;;;;4992877;28;19959;-71
2024/04/07 07:32:24;;;;;;;;;;;;;19.10;97212.00;;;;4993380;28;19925;-72
2024/04/07 07:35:13;;;;;;;;;;;;;19.70;97214.00;;;;4992150;28;19926;-71
2024/04/07 07:38:00;;;;;;;;;;;;;19.80;97219.00;;;;4996735;28;20549;-72
2024/04/07 07:40:48;;;;;;;;;;;;;20.10;97212.00;;;;4992228;28;19925;-71
2024/04/07 07:43:35;;;;;;;;;;;;;20.50;97213.00;;;;4993077;28;19929;-71
2024/04/07 07:46:23;;;;;;;;;;;;;20.10;97213.00;;;;5007928;28;19948;-71
2024/04/07 07:49:10;;;;;;;;;;;;;20.50;97219.00;;;;4992702;28;19933;-72
2024/04/07 07:51:59;;;;;;;;;;;;;20.20;97218.00;;;;4998888;28;20349;-71
2024/04/07 07:54:46;;;;;;;;;;;;;20.50;97219.00;;;;4994768;28;20402;-71
2024/04/07 07:57:34;;;;;;;;;;;;;20.70;97219.00;;;;5008998;28;19925;-71
2024/04/07 08:00:23;;;;;;;;;;;;;21.20;97220.00;;;;4995656;28;19925;-71
2024/04/07 08:03:11;;;;;;;;;;;;;21.30;97221.00;;;;4998972;28;19941;-71
2024/04/07 08:05:58;;;;;;;;;;;;;21.10;97219.00;;;;4993294;28;19987;-71
2024/04/07 08:08:47;;;;;;;;;;;;;20.90;97215.00;;;;4990128;28;19929;-71
2024/04/07 08:11:35;;;;;;;;;;;;;20.80;97221.00;;;;4987071;28;19925;-71
2024/04/07 08:14:23;;;;;;;;;;;;;21.50;97213.00;;;;4995332;28;19925;-72
2024/04/07 08:17:11;;;;;;;;;;;;;21.50;97202.00;;;;4994365;28;20441;-72
2024/04/07 08:19:59;;;;;;;;;;;;;21.80;97201.00;;;;4989563;28;19926;-71
2024/04/07 08:22:47;;;;;;;;;;;;;22.10;97192.00;;;;4989047;28;19929;-72
2024/04/07 08:25:36;;;;;;;;;;;;;21.90;97200.00;;;;4991639;28;20384;-71
2024/04/07 08:28:25;;;;;;;;;;;;;22.90;97202.00;;;;4993561;28;20449;-71
2024/04/07 08:31:13;;;;;;;;;;;;;22.90;97201.00;;;;4995466;28;19933;-72
2024/04/07 08:34:00;;;;;;;;;;;;;22.90;97188.00;;;;4989852;28;19940;-71
2024/04/07 08:36:48;;;;;;;;;;;;;23.20;97205.00;;;;4984838;28;19931;-71
2024/04/07 08:39:35;;;;;;;;;;;;;22.60;97198.00;;;;4989950;28;19929;-71
2024/04/07 08:42:24;;;;;;;;;;;;;22.80;97200.00;;;;4990896;28;19925;-72
2024/04/07 08:45:12;;;;;;;;;;;;;23.30;97199.00;;;;4992637;28;19925;-71
2024/04/07 08:47:59;;;;;;;;;;;;;23.90;97189.00;;;;4991943;28;19932;-71
2024/04/07 08:50:46;;;;;;;;;;;;;24.00;97188.00;;;;4988943;28;19930;-70
2024/04/07 08:53:34;;;;;;;;;;;;;24.00;97193.00;;;;4994691;28;19925;-71
2024/04/07 08:56:21;;;;;;;;;;;;;24.60;97198.00;;;;4993657;28;19951;-70
2024/04/07 08:59:11;;;;;;;;;;;;;24.30;97191.00;;;;4989110;28;19929;-70
2024/04/07 09:01:58;;;;;;;;;;;;;24.30;97189.00;;;;4992618;28;19979;-71
2024/04/07 09:04:46;;;;;;;;;;;;;24.50;97183.00;;;;4991248;28;19936;-72
2024/04/07 09:07:33;;;;;;;;;;;;;25.40;97194.00;;;;4991878;28;19980;-70
2024/04/07 09:10:20;;;;;;;;;;;21.40;91.70;25.60;97189.00;;;;4993500;28;19932;-70
2024/04/07 09:13:07;;;;;;;;;;;21.60;91.90;25.70;97181.00;;;;4990866;28;19937;-71
2024/04/07 09:15:56;;;;;;;;;;;21.90;91.00;25.80;97185.00;;;;4988889;28;20572;-70
2024/04/07 09:18:43;;;;;;;;;;;22.10;89.40;26.20;97191.00;;;;4992208;28;19925;-70
2024/04/07 09:21:31;;;;;;;;;;;22.80;89.80;26.50;97182.00;;;;5005014;28;19940;-71
2024/04/07 09:24:17;;;;;;;;;;;22.60;88.20;26.70;97183.00;;;;4991044;28;19932;-70
2024/04/07 09:27:09;;;;;;;;;;;22.90;86.50;27.30;97179.00;;;;4991739;28;19925;-70
2024/04/07 09:29:57;;;;;;;;;;;23.10;87.20;27.10;97174.00;;;;4991139;28;19937;-71
2024/04/07 09:32:48;;;;;;;;;;;23.40;85.30;27.30;97180.00;;;;4988832;28;19931;-70
2024/04/07 09:35:36;;;;;;;;;;;23.50;84.30;27.60;97172.00;;;;5005485;28;19939;-70
2024/04/07 09:38:24;;;;;;;;;;;23.70;83.90;27.80;97184.00;;;;4995131;28;19925;-70
2024/04/07 09:41:11;;;;;;;;;;;23.90;82.80;27.70;97181.00;;;;4995104;28;19934;-70
2024/04/07 09:44:03;;;;;;;;;;;24.00;81.70;27.80;97183.00;;;;4996570;28;19930;-70
2024/04/07 09:46:52;;;;;;;;;;;24.10;82.20;28.10;97175.00;;;;4995701;28;19979;-68
2024/04/07 09:49:40;;;;;;;;;;;24.20;81.80;28.40;97159.00;;;;4995568;28;19976;-68
2024/04/07 09:52:32;;;;;;;;;;;24.40;81.40;29.00;97158.00;;;;4995605;28;19936;-68
2024/04/07 09:55:20;;;;;;;;;;;24.70;81.50;28.90;97167.00;;;;4999922;28;19938;-68
2024/04/07 09:58:09;;;;;;;;;;;24.90;78.80;29.30;97164.00;;;;4997422;28;19936;-68
2024/04/07 10:00:56;;;;;;;;;;;;;29.70;97168.00;;;;4999322;28;20354;-69
2024/04/07 10:03:45;;;;;;;;;;;;;30.00;97159.00;;;;5002726;28;19925;-69
2024/04/07 10:06:33;;;;;;;;;;;;;30.50;97161.00;;;;4997526;28;19926;-69
2024/04/07 10:09:21;;;;;;;;;;;;;30.10;97162.00;;;;4996851;28;19948;-69
2024/04/07 10:12:09;;;;;;;;;;;;;30.70;97158.00;;;;4988429;28;19933;-69
2024/04/07 10:14:58;;;;;;;;;;;;;31.20;97153.00;;;;4994222;28;19934;-69
2024/04/07 10:17:45;;;;;;;;;;;;;31.40;97158.00;;;;4996137;28;19953;-69
2024/04/07 10:20:34;;;;;;;;;;;;;31.60;97154.00;;;;4996869;28;19925;-69
2024/04/07 10:23:26;;;;;;;;;;;;;31.70;97153.00;;;;4996813;28;19967;-69
2024/04/07 10:26:15;;;;;;;;;;;;;31.80;97147.00;;;;4989031;28;20422;-69
2024/04/07 10:29:05;;;;;;;;;;;;;32.30;97150.00;;;;4992526;28;19975;-69
2024/04/07 10:31:53;;;;;;;;;;;;;31.70;97136.00;;;;4993919;28;20317;-69
2024/04/07 10:34:54;;;;;;;;;;;;;31.80;97139.00;;;;4991762;28;19925;-69
2024/04/07 10:37:42;;;;;;;;;;;;;32.40;97142.00;;;;4992151;28;19929;-69
2024/04/07 10:40:31;;;;;;;;;;;;;31.50;97143.00;;;;5001458;28;20290;-69
2024/04/07 10:43:19;;;;;;;;;;;;;32.60;97142.00;;;;4996570;28;20398;-69
2024/04/07 10:46:06;;;;;;;;;;;;;31.10;97127.00;;;;4994641;28;19929;-69
2024/04/07 10:48:54;;;;;;;;;;;;;31.90;97134.00;;;;4997927;28;19925;-69
2024/04/07 10:51:46;;;;;;;;;;;;;31.40;97130.00;;;;4995491;28;19978;-69
2024/04/07 10:54:34;;;;;;;;;;;;;32.30;97119.00;;;;4992188;28;19934;-70
2024/04/07 10:57:22;;;;;;;;;;;;;31.20;97116.00;;;;4991038;28;19930;-69
2024/04/07 11:00:11;;;;;;;;;;;;;31.90;97128.00;;;;4994089;28;19933;-69
2024/04/07 11:02:58;;;;;;;;;;;;;31.30;97119.00;;;;4995784;28;19925;-68
2024/04/07 11:05:46;;;;;;;;;;;;;33.30;97114.00;;;;4992621;28;19925;-69
2024/04/07 11:08:32;;;;;;;;;;;;;33.90;97114.00;;;;4997482;28;20306;-69
2024/04/07 11:11:21;;;;;;;;;;;;;32.80;97110.00;;;;4994687;28;19926;-69
2024/04/07 11:14:10;;;;;;;;;;;;;33.00;97113.00;;;;4995913;28;19929;-69
2024/04/07 11:17:01;;;;;;;;;;;;;33.70;97117.00;;;;4992703;28;19987;-69
2024/04/07 11:19:51;;;;;;;;;;;;;33.50;97110.00;;;;4993647;28;19929;-70
2024/04/07 11:22:38;;;;;;;;;;;;;33.80;97115.00;;;;5004067;28;19925;-70
2024/04/07 11:25:26;;;;;;;;;;;;;34.70;97102.00;;;;4990500;28;19931;-69
2024/04/07 11:28:14;;;;;;;704.28;662.65;;;;;33.40;97102.00;;;;4988698;28;19932;-69
2024/04/07 11:31:04;;;;;;;684.45;646.67;;;;;34.20;97102.00;;;;4989473;28;20231;-70
2024/04/07 11:33:52;;;;;;;621.95;590.92;;;;;34.90;97094.00;;;;4996193;28;20218;-70
2024/04/07 11:36:41;;;;;;;616.03;586.58;;;;;34.40;97093.00;;;;4990565;28;20201;-69
2024/04/07 11:39:28;;;;;;;557.83;532.45;;;;;32.60;97085.00;;;;4993097;28;20209;-71
2024/04/07 11:42:16;;;;;;;660.65;625.90;;;;;34.50;97085.00;;;;4990721;28;20208;-71
2024/04/07 11:45:05;;;;;;;747.25;702.60;;;;;34.80;97088.00;;;;4994177;28;20202;-71
2024/04/07 11:47:54;;;;;;;751.33;706.67;;;;;34.90;97080.00;;;;4991229;28;20232;-70
2024/04/07 11:50:42;;;;;;;735.53;695.17;;;;;36.50;97085.00;;;;4991925;28;20225;-70
2024/04/07 11:53:30;;;;;;;658.40;625.45;;;;;36.40;97077.00;;;;4994960;28;20218;-70
2024/04/07 11:56:17;;;;;;;795.03;746.30;;;;;35.80;97073.00;;;;4985394;28;20213;-70
2024/04/07 11:59:06;;;;;;;770.25;726.88;;;;;36.50;97073.00;;;;4984830;28;20201;-70
2024/04/07 12:01:53;;;;;;;819.97;768.22;;;;;34.40;97071.00;;;;4990518;28;20276;-71
2024/04/07 12:04:42;;;;;;;818.90;767.47;;;;;36.10;97064.00;;;;4988966;28;20232;-70
2024/04/07 12:07:30;;;;;;;818.72;767.55;;;;;35.50;97063.00;;;;4984405;28;20624;-70
2024/04/07 12:10:18;;;;;;;819.22;767.42;;;;;37.10;97077.00;;;;4998903;28;20224;-70
2024/04/07 12:13:05;;;;;;;839.13;786.72;;;;;36.70;97083.00;;;;4990873;28;20210;-69
2024/04/07 12:15:53;;;;;;;832.17;778.33;;;;;37.20;97082.00;;;;4993536;28;20252;-69
2024/04/07 12:18:40;;;;;;;838.42;785.88;;;;;37.60;97064.00;;;;4989420;28;20210;-69
2024/04/07 12:21:30;;;;;;;840.40;785.25;;;;;37.90;97067.00;;;;4988675;28;20645;-70
2024/04/07 12:24:17;;;;;;;855.45;799.17;;;;;38.00;97068.00;;;;4991097;28;20205;-70
2024/04/07 12:27:05;;;;;;;862.35;806.63;;;;;37.90;97064.00;;;;4986461;28;20628;-69
2024/04/07 12:29:52;;;;;;;871.35;814.70;;;;;36.30;97063.00;;;;4989039;28;20234;-69
2024/04/07 12:32:41;;;;;;;858.25;802.95;;;;;36.20;97068.00;;;;4990483;28;20203;-72
2024/04/07 12:35:28;;;;;;;857.85;801.45;;;;;37.10;97072.00;;;;4997129;28;20740;-72
2024/04/07 12:38:17;;;;;;;858.53;801.35;;;;;37.00;97072.00;;;;4998993;28;20578;-70
2024/04/07 12:41:05;;;;;;;856.72;800.08;;;;;36.20;97065.00;;;;5001393;28;20252;-70
2024/04/07 12:43:53;;;;;;;854.25;799.40;;;;;37.20;97065.00;;;;4993168;28;20211;-69
2024/04/07 12:46:41;;;;;;;868.90;814.03;;;;;37.10;97059.00;;;;4991713;28;20212;-70
2024/04/07 12:49:28;;;;;;;850.72;797.75;;;;;34.10;97060.00;;;;4993752;28;20614;-68
2024/04/07 12:52:16;;;;;;;858.05;803.00;;;;;37.40;97065.00;;;;4985868;28;20650;-68
2024/04/07 12:55:06;;;;;;;784.58;741.53;;;;;35.00;97059.00;;;;4991139;28;20559;-69
2024/04/07 12:57:54;;;;;;;799.17;753.08;;;;;35.10;97085.00;;;;4994408;28;20632;-70
2024/04/07 13:00:41;;;;;;;841.10;785.13;;;;;33.50;97090.00;;;;4993594;28;20230;-72
2024/04/07 13:03:30;;;;;;;827.75;774.33;;;;;33.90;97055.00;;;;5000112;28;20785;-71
2024/04/07 13:06:18;;;;;;;332.25;319.23;;;;;36.50;97049.00;;;;4990350;28;20205;-68
2024/04/07 13:09:06;;;;;;;306.73;295.17;;;;;37.40;97049.00;;;;4995472;28;20686;-69
2024/04/07 13:11:55;;;;;;;409.50;393.87;;;;;37.60;97048.00;;;;5001779;28;20192;-69
2024/04/07 13:14:43;;;;;;;559.33;535.08;;;;;38.20;97049.00;;;;4999873;28;20258;-69
2024/04/07 13:17:31;;;;;;;593.85;567.40;;;;;34.50;97032.00;;;;5006099;28;20647;-67
2024/04/07 13:20:18;;;;;;;761.75;719.58;;;;;32.40;97041.00;;;;4997898;28;20251;-68
2024/04/07 13:23:06;;;;;;;799.15;754.08;;;;;34.50;97030.00;;;;4993430;28;20225;-69
2024/04/07 13:25:53;;;;;;;594.95;567.50;;;;;37.50;97041.00;;;;4994882;28;20213;-68
2024/04/07 13:28:43;;;;;;;356.27;342.65;;;;;38.30;97047.00;;;;5000456;28;20205;-68
2024/04/07 13:31:30;;;;;;;688.85;654.35;;;;;37.10;97050.00;;;;4997544;28;20225;-69
2024/04/07 13:34:19;;;;;;;857.80;800.58;;;;;38.20;97041.00;;;;4996574;28;20263;-70
2024/04/07 13:37:06;;;;;;;866.13;808.90;;;;;38.90;97045.00;;;;4996836;28;20263;-69
2024/04/07 13:39:55;;;;;;;881.47;824.22;;;;;37.00;97049.00;;;;4998957;28;20768;-70
2024/04/07 13:42:42;;;;;;;888.10;831.03;;;;;38.70;97044.00;;;;4997857;28;20219;-69
2024/04/07 13:45:32;;;;;;;898.45;840.42;;;;;39.00;97041.00;;;;4994123;28;20419;-69
2024/04/07 13:48:19;;;;;;;909.40;851.35;;;;;37.90;97048.00;;;;4998504;28;20135;-69
2024/04/07 13:51:07;;;;;;;893.65;836.47;;;;;36.90;97050.00;;;;4993632;28;20225;-69
2024/04/07 13:53:54;;;;;;;888.88;832.83;;;;;38.30;97044.00;;;;4999936;28;20186;-68
2024/04/07 13:56:42;;;;;;;;;;;;;39.30;97050.00;;;;4999082;28;20046;-69
2024/04/07 13:59:29;;;;;;;897.65;844.90;;;;;39.00;97042.00;;;;4997175;28;20755;-69
2024/04/07 14:02:19;;;;;;;924.60;866.17;;;;;38.60;97045.00;;;;4996768;28;20042;-69
2024/04/07 14:05:06;;;;;;;758.33;718.30;;;;;38.90;97037.00;;;;4995228;28;20205;-70
2024/04/07 14:07:54;;;;;;;;;;;;;39.70;97035.00;;;;4995254;28;20042;-70
2024/04/07 14:10:43;;;;;;;;;;;;;40.40;97029.00;;;;4997212;28;19925;-69
2024/04/07 14:13:31;;;;;;;;;;;;;40.70;97044.00;;;;4998715;28;19929;-69
2024/04/07 14:16:17;;;;;;;;;;;;;40.80;97043.00;;;;4998370;28;19921;-69
2024/04/07 14:19:07;;;;;;;;;;;;;39.40;97041.00;;;;5000284;28;19987;-69
2024/04/07 14:21:54;;;;;;;;;;;;;40.20;97043.00;;;;4991780;28;19930;-69
2024/04/07 14:24:42;;;;;;;;;;;;;40.60;97040.00;;;;4990281;28;19922;-69
2024/04/07 14:27:28;;;;;;;;;;;;;40.80;97038.00;;;;4993678;28;19921;-70
2024/04/07 14:30:17;;;;;;;;;;;;;40.60;97036.00;;;;4994247;28;19936;-69
2024/04/07 14:33:05;;;;;;;;;;;;;41.10;97035.00;;;;4991067;28;19922;-69
2024/04/07 14:35:54;;;;;;;;;;;;;40.70;97035.00;;;;4994678;28;19926;-69
2024/04/07 14:38:41;;;;;;;;;;;;;37.30;97040.00;;;;5009887;28;20512;-70
2024/04/07 14:41:29;;;;;;;;;;;;;38.40;97039.00;;;;4995597;28;19929;-71
2024/04/07 14:44:16;;;;;;;;;;;;;36.90;97039.00;;;;4997479;28;20306;-70
2024/04/07 14:47:04;;;;;;;;;;;;;38.70;97029.00;;;;4992838;28;19921;-70
2024/04/07 14:49:52;;;;;;;;;;;;;40.10;97040.00;;;;4993600;28;19921;-70
2024/04/07 14:52:41;;;;;;;;;;;;;40.70;97041.00;;;;4993342;28;19933;-70
2024/04/07 14:55:28;;;;;;;;;;;;;40.10;97039.00;;;;4992120;28;19968;-69
2024/04/07 14:58:16;;;;;;;;;;;;;39.60;97038.00;;;;4994163;28;19934;-69
2024/04/07 15:01:05;;;;;;;;;;;;;40.10;97035.00;;;;4990663;28;19929;-70
2024/04/07 15:03:54;;;;;;;;;;;;;40.70;97028.00;;;;4994028;28;20345;-70
2024/04/07 15:06:43;;;;;;;;;;;;;40.90;97036.00;;;;4999442;28;19928;-70